Estación Meteorológica Peña el Pijo (Robertgarden) [ 12/10/18 11:15:47 CET ]

Fecha Hora Presion(HPa) Temp (°C) Humedad % Rocio (°C) Viento ( m/s) Direccion Lluvia 1Hora(mm) Lluvia 24H(mm) LLuvia Total(mm)
2018-Aug-03 01:01:39 1015.000 18.6 54 9.1         269.36
2018-Aug-03 02:01:45 1014.900 17.6 57 8.9         269.36
2018-Aug-03 03:01:57 1014.600 16.7 61 9.2         269.36
2018-Aug-03 04:01:51 1014.100 15.8 64 9.0         269.36
2018-Aug-03 05:01:55 1014.100 14.9 65 8.3         269.36
2018-Aug-03 06:01:51 1014.000 14.5 67 8.4         269.36
2018-Aug-03 07:01:37 1014.100 14.3 67 8.2         269.36
2018-Aug-03 08:01:45 1014.100 15.7 63 8.7         269.36
2018-Aug-03 09:01:49 1013.900 22.4 55 12.9         269.36
2018-Aug-03 10:01:43 1013.600 29.9 43 16.0         269.36
2018-Aug-03 11:01:53 1013.500 36.7 26 13.9         269.36
2018-Aug-03 12:01:51 1013.500 36.0 23 11.4 1.5 S     269.36
2018-Aug-03 13:01:45 1013.300 37.3 22 11.9         269.36
2018-Aug-03 14:01:34 1012.900 36.5 20 10.0 0.9 SSW     269.36
2018-Aug-03 15:01:51 1012.800 38.6 20 11.7         269.36
2018-Aug-03 16:01:42 1012.100 37.4 20 10.7 3.2 SSW     269.36
2018-Aug-03 17:01:41 1012.000 34.4 21 8.8         269.36
2018-Aug-03 18:01:33 1011.600 36.5 18 8.0 1.8 S     269.36
2018-Aug-03 19:01:45 1011.600 35.9 19 8.5         269.36
2018-Aug-03 20:01:39 1011.500 33.9 21 8.4         269.36
2018-Aug-03 21:01:47 1011.600 30.9 22 6.6         269.36
2018-Aug-03 22:01:48 1012.600 28.6 33 10.7         269.36
2018-Aug-03 23:01:51 1013.200 24.9 39 10.0         269.36

Temperatura Máxima:38°    Temperatura Mínima:14°
Presión Máxima:1015.000 Hpa    Presión Mínima:1011.500 Hpa


Volver